createdAt,value
2023-02-18T00:02:32.881Z,0.23
2023-02-18T00:05:20.018Z,0.30
2023-02-18T00:08:06.882Z,0.30
2023-02-18T00:10:53.885Z,0.20
2023-02-18T00:13:40.805Z,0.40
2023-02-18T00:16:32.669Z,0.23
2023-02-18T00:19:23.072Z,0.23
2023-02-18T00:22:09.978Z,0.30
2023-02-18T00:24:56.924Z,0.20
2023-02-18T00:27:43.922Z,0.30
2023-02-18T00:30:31.428Z,0.20
2023-02-18T00:33:18.432Z,0.20
2023-02-18T00:36:05.665Z,0.20
2023-02-18T00:38:53.317Z,0.30
2023-02-18T00:41:42.256Z,0.30
2023-02-18T00:44:30.318Z,0.40
2023-02-18T00:47:17.677Z,0.40
2023-02-18T00:50:04.632Z,0.33
2023-02-18T00:52:51.582Z,0.47
2023-02-18T00:55:38.418Z,0.40
2023-02-18T00:58:25.339Z,0.20
2023-02-18T01:01:12.328Z,0.40
2023-02-18T01:04:02.517Z,0.40
2023-02-18T01:06:49.494Z,0.43
2023-02-18T01:09:36.443Z,0.40
2023-02-18T01:12:23.828Z,0.40
2023-02-18T01:15:10.936Z,0.30
2023-02-18T01:17:59.554Z,0.23
2023-02-18T01:20:46.801Z,0.30
2023-02-18T01:23:35.170Z,0.40
2023-02-18T01:26:22.397Z,0.20
2023-02-18T01:29:09.451Z,0.30
2023-02-18T01:31:56.604Z,0.37
2023-02-18T01:34:43.591Z,0.40
2023-02-18T01:37:30.572Z,0.40
2023-02-18T01:40:17.468Z,0.50
2023-02-18T01:43:04.893Z,0.40
2023-02-18T01:45:54.457Z,0.30
2023-02-18T01:48:56.658Z,0.20
2023-02-18T01:51:56.026Z,0.40
2023-02-18T01:54:55.964Z,0.43
2023-02-18T01:57:47.011Z,0.30
2023-02-18T02:00:39.064Z,0.50
2023-02-18T02:03:25.920Z,0.40
2023-02-18T02:06:12.890Z,0.40
2023-02-18T02:09:00.968Z,0.40
2023-02-18T02:12:03.000Z,0.30
2023-02-18T02:15:38.429Z,0.30
2023-02-18T02:18:47.233Z,0.40
2023-02-18T02:22:11.541Z,0.33
2023-02-18T02:25:16.218Z,0.33
2023-02-18T02:28:44.266Z,0.30
2023-02-18T02:31:59.019Z,0.30
2023-02-18T02:34:58.286Z,0.47
2023-02-18T02:37:54.635Z,0.30
2023-02-18T02:40:55.129Z,0.20
2023-02-18T02:44:16.323Z,0.37
2023-02-18T02:47:06.853Z,0.40
2023-02-18T02:50:14.081Z,0.40
2023-02-18T02:53:12.793Z,0.37
2023-02-18T02:56:00.501Z,0.30
2023-02-18T02:58:49.138Z,0.30
2023-02-18T03:01:54.183Z,0.30
2023-02-18T03:04:56.193Z,0.30
2023-02-18T03:08:05.085Z,0.47
2023-02-18T03:11:31.527Z,0.30
2023-02-18T03:14:33.960Z,0.30
2023-02-18T03:17:35.631Z,0.30
2023-02-18T03:20:34.506Z,0.27
2023-02-18T03:23:27.135Z,0.40
2023-02-18T03:26:17.045Z,0.40
2023-02-18T03:29:09.142Z,0.43
2023-02-18T03:31:58.801Z,0.40
2023-02-18T03:34:57.494Z,0.37
2023-02-18T03:37:44.716Z,0.40
2023-02-18T03:40:32.621Z,0.43
2023-02-18T03:43:21.707Z,0.40
2023-02-18T03:46:08.926Z,0.40
2023-02-18T03:48:56.277Z,0.50
2023-02-18T03:51:43.124Z,0.30
2023-02-18T03:54:31.062Z,0.30
2023-02-18T03:57:18.040Z,0.30
2023-02-18T04:00:04.954Z,0.20
2023-02-18T04:02:59.964Z,0.30
2023-02-18T04:05:47.182Z,0.30
2023-02-18T04:08:34.349Z,0.17
2023-02-18T04:11:21.694Z,0.23
2023-02-18T04:14:08.690Z,0.30
2023-02-18T04:16:56.124Z,0.40
2023-02-18T04:19:43.298Z,0.20
2023-02-18T04:22:30.413Z,0.47
2023-02-18T04:25:17.445Z,0.30
2023-02-18T04:28:04.395Z,0.20
2023-02-18T04:30:51.747Z,0.30
2023-02-18T04:33:38.857Z,0.30
2023-02-18T04:36:26.295Z,0.37
2023-02-18T04:39:13.453Z,0.20
2023-02-18T04:42:00.311Z,0.30
2023-02-18T04:44:47.662Z,0.20
2023-02-18T04:47:34.802Z,0.20
2023-02-18T04:50:21.770Z,0.33
2023-02-18T04:53:09.223Z,0.20
2023-02-18T04:55:56.646Z,0.20
2023-02-18T04:58:43.523Z,0.33
2023-02-18T05:01:31.095Z,0.13
2023-02-18T05:04:18.002Z,0.30
2023-02-18T05:07:05.161Z,0.30
2023-02-18T05:09:51.969Z,0.17
2023-02-18T05:12:38.942Z,0.40
2023-02-18T05:15:26.463Z,0.40
2023-02-18T05:18:13.469Z,0.30
2023-02-18T05:21:00.356Z,0.20
2023-02-18T05:23:47.528Z,0.30
2023-02-18T05:26:34.417Z,0.20
2023-02-18T05:29:21.606Z,0.20
2023-02-18T05:32:08.617Z,0.20
2023-02-18T05:34:55.713Z,0.50
2023-02-18T05:37:42.642Z,0.30
2023-02-18T05:40:31.151Z,0.40
2023-02-18T05:43:18.223Z,0.30
2023-02-18T05:46:05.552Z,0.20
2023-02-18T05:48:52.413Z,0.20
2023-02-18T05:51:39.522Z,0.20
2023-02-18T05:54:26.468Z,0.40
2023-02-18T05:57:14.498Z,0.17
2023-02-18T06:00:01.721Z,0.20
2023-02-18T06:02:51.978Z,0.20
2023-02-18T06:05:38.982Z,0.37
2023-02-18T06:08:25.972Z,0.20
2023-02-18T06:11:12.775Z,0.20
2023-02-18T06:13:59.858Z,0.10
2023-02-18T06:16:47.190Z,0.20
2023-02-18T06:19:34.199Z,0.10
2023-02-18T06:22:21.064Z,0.27
2023-02-18T06:25:08.449Z,0.10
2023-02-18T06:27:55.341Z,0.20
2023-02-18T06:30:42.314Z,0.10
2023-02-18T06:33:29.248Z,0.13
2023-02-18T06:36:19.222Z,0.10
2023-02-18T06:39:06.378Z,0.03
2023-02-18T06:41:53.567Z,0.30
2023-02-18T06:44:40.387Z,0.20
2023-02-18T06:47:27.349Z,0.20
2023-02-18T06:50:14.192Z,0.20
2023-02-18T06:53:01.242Z,0.20
2023-02-18T06:55:48.250Z,0.20
2023-02-18T06:58:35.880Z,0.20
2023-02-18T07:01:22.843Z,0.20
2023-02-18T07:04:09.975Z,0.20
2023-02-18T07:06:56.997Z,0.20
2023-02-18T07:09:44.132Z,0.20
2023-02-18T07:12:31.154Z,0.17
2023-02-18T07:15:18.149Z,0.20
2023-02-18T07:18:05.013Z,0.20
2023-02-18T07:20:52.087Z,0.10
2023-02-18T07:23:38.953Z,0.10
2023-02-18T07:26:32.010Z,0.20
2023-02-18T07:29:19.066Z,0.20
2023-02-18T07:32:05.978Z,0.20
2023-02-18T07:34:52.927Z,0.00
2023-02-18T07:37:40.826Z,0.10
2023-02-18T07:40:28.220Z,0.10
2023-02-18T07:43:15.195Z,0.13
2023-02-18T07:46:02.471Z,0.10
2023-02-18T07:48:49.481Z,0.10
2023-02-18T07:51:36.522Z,0.13
2023-02-18T10:12:08.903Z,0.10
2023-02-18T10:14:56.498Z,0.13
2023-02-18T10:17:47.910Z,0.10
2023-02-18T10:20:42.600Z,0.10
2023-02-18T10:23:32.311Z,0.10
2023-02-18T10:26:22.716Z,0.10
2023-02-18T10:29:09.764Z,0.10
2023-02-18T10:32:01.127Z,0.00
2023-02-18T10:35:14.321Z,0.10
2023-02-18T10:38:14.922Z,0.50
2023-02-18T10:41:01.991Z,0.17
2023-02-18T10:44:07.413Z,0.20
2023-02-18T10:47:36.521Z,0.10
2023-02-18T10:50:38.693Z,0.10
2023-02-18T10:53:33.818Z,0.10
2023-02-18T10:56:20.932Z,0.00
2023-02-18T10:59:08.185Z,0.10
2023-02-18T11:01:55.150Z,0.17
2023-02-18T11:05:01.324Z,0.20
2023-02-18T11:07:57.907Z,0.20
2023-02-18T11:10:49.294Z,0.30
2023-02-18T11:13:43.778Z,0.10
2023-02-18T11:16:32.596Z,0.17
2023-02-18T11:19:20.118Z,0.10
2023-02-18T11:22:07.684Z,0.10
2023-02-18T11:24:59.127Z,0.10
2023-02-18T11:27:48.904Z,0.13
2023-02-18T11:30:45.703Z,0.10
2023-02-18T11:33:41.720Z,0.10
2023-02-18T11:36:54.553Z,0.30
2023-02-18T11:39:28.164Z,0.20
2023-02-18T11:42:18.663Z,0.10
2023-02-18T11:45:13.713Z,0.17
2023-02-18T11:48:00.847Z,0.20
2023-02-18T11:50:53.336Z,0.20
2023-02-18T11:53:55.905Z,0.00
2023-02-18T11:56:42.928Z,0.20
2023-02-18T11:59:31.719Z,0.10
2023-02-18T12:02:30.937Z,0.10
2023-02-18T12:05:34.130Z,0.20
2023-02-18T12:08:44.843Z,0.10
2023-02-18T12:11:42.581Z,0.20
2023-02-18T12:14:43.703Z,0.10
2023-02-18T12:17:58.498Z,0.33
2023-02-18T12:21:07.246Z,0.20
2023-02-18T12:24:00.620Z,0.17
2023-02-18T12:27:04.807Z,0.30
2023-02-18T12:30:21.114Z,0.30
2023-02-18T12:33:23.338Z,0.30
2023-02-18T12:36:54.882Z,0.27
2023-02-18T12:39:50.573Z,0.20
2023-02-18T12:42:47.394Z,0.23
2023-02-18T12:46:13.238Z,0.17
2023-02-18T12:49:29.802Z,0.20
2023-02-18T12:52:49.273Z,0.23
2023-02-18T12:55:38.715Z,0.30
2023-02-18T12:58:58.511Z,0.30
2023-02-18T13:02:02.112Z,0.33
2023-02-18T13:05:00.326Z,0.40
2023-02-18T13:08:34.576Z,0.30
2023-02-18T13:11:55.621Z,0.33
2023-02-18T13:14:50.664Z,0.30
2023-02-18T13:17:39.609Z,0.30
2023-02-18T13:20:40.865Z,0.30
2023-02-18T13:23:36.252Z,0.30
2023-02-18T13:26:25.841Z,0.20
2023-02-18T13:29:23.452Z,0.20
2023-02-18T13:32:37.575Z,0.30
2023-02-18T13:35:27.454Z,0.30
2023-02-18T13:38:48.348Z,0.13
2023-02-18T13:41:35.878Z,0.30
2023-02-18T13:44:28.416Z,0.30
2023-02-18T13:47:18.489Z,0.33
2023-02-18T13:50:05.541Z,0.50
2023-02-18T13:52:52.633Z,0.27
2023-02-18T13:55:45.910Z,0.30
2023-02-18T13:58:43.882Z,0.20
2023-02-18T14:01:30.649Z,0.30
2023-02-18T14:04:19.440Z,0.30
2023-02-18T14:07:43.508Z,0.40
2023-02-18T14:10:37.013Z,0.20
2023-02-18T14:13:43.427Z,0.30
2023-02-18T14:16:31.323Z,0.40
2023-02-18T14:19:21.367Z,0.30
2023-02-18T14:22:08.198Z,0.30
2023-02-18T14:25:08.721Z,0.30
2023-02-18T14:27:57.582Z,0.20
2023-02-18T14:30:46.195Z,0.40
2023-02-18T14:33:36.372Z,0.37
2023-02-18T14:36:31.987Z,0.30
2023-02-18T14:39:55.870Z,0.43
2023-02-18T14:42:48.940Z,0.30
2023-02-18T14:45:39.417Z,0.20
2023-02-18T14:48:44.298Z,0.40
2023-02-18T14:51:36.210Z,0.43
2023-02-18T14:54:27.053Z,0.60
2023-02-18T14:57:21.982Z,0.43
2023-02-18T15:00:08.863Z,0.30
2023-02-18T15:02:57.499Z,0.40
2023-02-18T15:05:47.332Z,0.40
2023-02-18T15:08:43.030Z,0.60
2023-02-18T15:11:31.791Z,0.33
2023-02-18T15:14:18.644Z,0.33
2023-02-18T15:17:06.771Z,0.40
2023-02-18T15:20:03.931Z,0.23
2023-02-18T15:22:53.490Z,0.40
2023-02-18T15:25:40.596Z,0.30
2023-02-18T15:28:41.442Z,0.40
2023-02-18T15:31:31.439Z,0.40
2023-02-18T15:34:18.438Z,0.30
2023-02-18T15:37:12.293Z,0.40
2023-02-18T15:40:02.415Z,0.50
2023-02-18T15:42:53.144Z,0.30
2023-02-18T15:45:43.185Z,0.40
2023-02-18T15:48:50.209Z,0.40
2023-02-18T15:51:45.146Z,0.57
2023-02-18T15:54:37.766Z,0.30
2023-02-18T15:57:26.497Z,0.40
2023-02-18T16:00:25.501Z,0.50
2023-02-18T16:03:16.659Z,0.57
2023-02-18T16:06:03.515Z,0.20
2023-02-18T16:08:50.690Z,0.30
2023-02-18T16:11:37.626Z,0.30
2023-02-18T16:14:24.595Z,0.40
2023-02-18T16:17:27.129Z,0.37
2023-02-18T16:20:45.533Z,0.30
2023-02-18T16:23:34.118Z,0.40
2023-02-18T16:26:43.164Z,0.53
2023-02-18T16:29:44.911Z,0.40
2023-02-18T16:32:31.961Z,0.20
2023-02-18T16:35:18.893Z,0.50
2023-02-18T16:38:06.298Z,0.40
2023-02-18T16:40:54.950Z,0.30
2023-02-18T16:43:29.563Z,0.40
2023-02-18T16:46:18.896Z,0.40
2023-02-18T16:49:09.317Z,0.30
2023-02-18T16:51:56.333Z,0.30
2023-02-18T16:54:43.328Z,0.30
2023-02-18T16:57:33.642Z,0.20
2023-02-18T17:00:21.659Z,0.30
2023-02-18T17:03:11.562Z,0.27
2023-02-18T17:06:01.592Z,0.40
2023-02-18T17:08:48.560Z,0.30
2023-02-18T17:11:48.510Z,0.50
2023-02-18T17:14:39.877Z,0.40
2023-02-18T17:17:31.919Z,0.60
2023-02-18T17:20:19.224Z,0.43
2023-02-18T17:23:06.234Z,0.50
2023-02-18T17:25:59.667Z,0.60
2023-02-18T17:28:46.596Z,0.40
2023-02-18T17:31:40.375Z,0.40
2023-02-18T17:34:32.303Z,0.50
2023-02-18T17:37:39.064Z,0.43
2023-02-18T17:40:33.180Z,0.50
2023-02-18T17:43:20.496Z,0.73
2023-02-18T17:46:16.091Z,0.50
2023-02-18T17:49:04.642Z,0.70
2023-02-18T17:51:51.640Z,0.50
2023-02-18T17:54:40.609Z,0.50
2023-02-18T17:57:28.350Z,0.50
2023-02-18T18:00:15.304Z,0.40
2023-02-18T18:03:02.467Z,0.70
2023-02-18T18:05:52.295Z,0.60
2023-02-18T18:08:39.169Z,0.50
2023-02-18T18:11:26.451Z,0.50
2023-02-18T18:14:13.409Z,0.53
2023-02-18T18:16:41.021Z,0.70
2023-02-18T18:19:28.030Z,0.50
2023-02-18T18:22:15.163Z,0.70
2023-02-18T18:25:01.991Z,0.50
2023-02-18T18:27:49.086Z,0.50
2023-02-18T18:30:36.667Z,0.60
2023-02-18T18:33:30.180Z,0.63
2023-02-18T18:36:18.718Z,0.60
2023-02-18T18:39:06.575Z,0.60
2023-02-18T18:41:53.484Z,0.70
2023-02-18T18:44:40.514Z,0.60
2023-02-18T18:47:15.347Z,0.67
2023-02-18T18:50:02.598Z,0.57
2023-02-18T18:52:49.584Z,0.50
2023-02-18T18:55:48.939Z,0.70
2023-02-18T18:58:36.391Z,0.60
2023-02-18T19:01:25.470Z,0.70
2023-02-18T19:04:12.457Z,0.60
2023-02-18T19:06:59.686Z,0.60
2023-02-18T19:09:46.551Z,0.63
2023-02-18T19:12:33.711Z,0.73
2023-02-18T19:15:22.816Z,0.60
2023-02-18T19:18:14.779Z,0.70
2023-02-18T19:21:02.494Z,0.40
2023-02-18T19:23:49.745Z,0.67
2023-02-18T19:26:36.659Z,0.50
2023-02-18T19:29:23.725Z,0.40
2023-02-18T19:32:10.895Z,0.37
2023-02-18T19:34:58.039Z,0.53
2023-02-18T19:37:45.006Z,0.30
2023-02-18T19:40:34.220Z,0.40
2023-02-18T19:43:21.112Z,0.37
2023-02-18T19:46:08.156Z,0.50
2023-02-18T19:48:55.122Z,0.70
2023-02-18T19:51:42.213Z,0.50
2023-02-18T19:54:29.065Z,0.50
2023-02-18T19:57:15.987Z,0.60
2023-02-18T20:00:02.959Z,0.33
2023-02-18T20:03:00.078Z,0.40
2023-02-18T20:05:47.218Z,0.40
2023-02-18T20:08:34.191Z,0.40
2023-02-18T20:11:21.080Z,0.40
2023-02-18T20:14:08.625Z,0.40
2023-02-18T20:16:55.645Z,0.60
2023-02-18T20:19:42.674Z,0.40
2023-02-18T20:22:32.301Z,0.50
2023-02-18T20:25:20.180Z,0.60
2023-02-18T20:28:07.146Z,0.63
2023-02-18T20:30:54.006Z,0.40
2023-02-18T20:33:41.133Z,0.77
2023-02-18T20:36:28.906Z,0.50
2023-02-18T20:39:16.563Z,0.60
2023-02-18T20:42:15.476Z,0.40
2023-02-18T20:45:03.862Z,0.50
2023-02-18T20:47:50.758Z,0.30
2023-02-18T20:50:37.745Z,0.40
2023-02-18T20:53:24.761Z,0.50
2023-02-18T20:56:11.788Z,0.50
2023-02-18T20:58:58.983Z,0.30
2023-02-18T21:01:46.717Z,0.33
2023-02-18T21:04:36.684Z,0.40
2023-02-18T21:07:23.501Z,0.40
2023-02-18T21:10:10.455Z,0.30
2023-02-18T21:12:57.322Z,0.30
2023-02-18T21:15:44.198Z,0.23
2023-02-18T21:18:31.374Z,0.33
2023-02-18T21:21:20.987Z,0.30
2023-02-18T21:24:08.042Z,0.30
2023-02-18T21:26:55.596Z,0.37
2023-02-18T21:29:42.604Z,0.20
2023-02-18T21:32:29.639Z,0.20
2023-02-18T21:35:16.546Z,0.30
2023-02-18T21:38:03.381Z,0.30
2023-02-18T21:40:50.939Z,0.20
2023-02-18T21:43:37.872Z,0.30
2023-02-18T21:46:29.510Z,0.27
2023-02-18T21:49:26.830Z,0.20
2023-02-18T21:52:16.796Z,0.10
2023-02-18T21:55:06.969Z,0.20
2023-02-18T21:57:53.949Z,0.27
2023-02-18T22:00:41.198Z,0.30
2023-02-18T22:03:28.133Z,0.20
2023-02-18T22:06:15.032Z,0.30
2023-02-18T22:09:01.923Z,0.20
2023-02-18T22:11:29.977Z,0.40
2023-02-18T22:14:16.968Z,0.30
2023-02-18T22:17:04.327Z,0.30
2023-02-18T22:19:51.416Z,0.30
2023-02-18T22:22:38.426Z,0.10
2023-02-18T22:25:26.109Z,0.20
2023-02-18T22:28:13.082Z,0.30
2023-02-18T22:31:00.119Z,0.40
2023-02-18T22:33:35.519Z,0.23
2023-02-18T22:36:08.173Z,0.40
2023-02-18T22:38:40.413Z,0.30
2023-02-18T22:41:29.964Z,0.23
2023-02-18T22:44:19.084Z,0.30
2023-02-18T22:47:05.983Z,0.20
2023-02-18T22:49:53.185Z,0.20
2023-02-18T22:52:35.803Z,0.20
2023-02-18T22:55:23.201Z,0.30
2023-02-18T22:58:10.035Z,0.30
2023-02-18T23:00:57.098Z,0.20
2023-02-18T23:03:44.099Z,0.43
2023-02-18T23:06:31.192Z,0.30
2023-02-18T23:08:58.552Z,0.20
2023-02-18T23:11:45.762Z,0.20
2023-02-18T23:14:38.718Z,0.40
2023-02-18T23:17:34.447Z,0.30
2023-02-18T23:20:21.297Z,0.30
2023-02-18T23:23:08.478Z,0.40
2023-02-18T23:25:55.514Z,0.50
2023-02-18T23:28:42.677Z,0.40
2023-02-18T23:31:29.703Z,0.27
2023-02-18T23:34:19.156Z,0.53
2023-02-18T23:36:51.458Z,0.30
2023-02-18T23:39:37.049Z,0.50
2023-02-18T23:42:24.274Z,0.60
2023-02-18T23:45:12.241Z,0.40
2023-02-18T23:47:59.161Z,0.33
2023-02-18T23:50:34.695Z,0.40
2023-02-18T23:53:21.640Z,0.63
2023-02-18T23:56:08.503Z,0.40
2023-02-18T23:58:55.453Z,0.90
